Time,TemperatureF,DewpointF,PressureIn,WindDirection,WindDirectionDegrees,WindSpeedMPH,WindSpeedGustMPH,Humidity,HourlyPrecipIn,Conditions,Clouds,dailyrainin,SolarRadiationWatts/m^2,SoftwareType,DateUTC
2013-07-23 00:04:00,87.4,72.8,29.96,ESE,112,5.8,5.8,62,0.00,CLR,,0.00,0.0,WeatherDisplay:10.37,2013-07-23 05:04:00,
2013-07-23 00:10:00,87.4,72.8,29.97,ESE,112,5.9,5.9,62,0.00,CLR,,0.00,0.0,WeatherDisplay:10.37,2013-07-23 05:10:00,
2013-07-23 00:15:00,87.1,73.0,29.97,South,180,4.6,4.6,63,0.00,CLR,,0.00,0.0,WeatherDisplay:10.37,2013-07-23 05:15:00,
2013-07-23 00:20:00,87.1,73.0,29.97,SSE,158,4.6,4.6,63,0.00,CLR,,0.00,0.0,WeatherDisplay:10.37,2013-07-23 05:20:00,
2013-07-23 00:25:00,86.9,73.3,29.97,WSW,248,2.5,2.6,64,0.00,CLR,,0.00,0.0,WeatherDisplay:10.37,2013-07-23 05:25:00,
2013-07-23 00:30:00,86.9,73.3,29.97,South,180,2.3,2.3,64,0.00,CLR,,0.00,0.0,WeatherDisplay:10.37,2013-07-23 05:30:00,
2013-07-23 00:36:00,86.9,73.3,29.97,SW,225,1.4,2.1,64,0.00,CLR,,0.00,0.0,WeatherDisplay:10.37,2013-07-23 05:36:00,
2013-07-23 00:41:00,86.7,73.5,29.97,North,0,5.8,5.8,65,0.00,CLR,,0.00,0.0,WeatherDisplay:10.37,2013-07-23 05:41:00,
2013-07-23 00:46:00,86.5,73.4,29.97,South,180,3.5,3.5,65,0.00,CLR,,0.00,0.0,WeatherDisplay:10.37,2013-07-23 05:46:00,
2013-07-23 00:51:00,86.5,73.4,29.98,South,180,5.8,5.8,65,0.00,CLR,,0.00,0.0,WeatherDisplay:10.37,2013-07-23 05:51:00,
2013-07-23 00:56:00,86.5,73.4,29.98,South,180,4.6,4.6,65,0.00,CLR,,0.00,0.0,WeatherDisplay:10.37,2013-07-23 05:56:00,
2013-07-23 01:01:00,86.4,73.2,29.98,South,180,4.6,4.6,65,0.00,CLR,,0.00,0.0,WeatherDisplay:10.37,2013-07-23 06:01:00,
2013-07-23 01:06:00,86.5,73.4,29.98,SW,225,2.3,2.4,65,0.00,CLR,,0.00,0.0,WeatherDisplay:10.37,2013-07-23 06:06:00,
2013-07-23 01:12:00,86.4,73.2,29.97,SSE,158,3.7,3.7,65,0.00,CLR,,0.00,0.0,WeatherDisplay:10.37,2013-07-23 06:12:00,
2013-07-23 01:17:00,86.2,73.0,29.97,SW,225,2.3,2.3,65,0.00,CLR,,0.00,0.0,WeatherDisplay:10.37,2013-07-23 06:17:00,
2013-07-23 01:22:00,86.0,72.9,29.97,WSW,248,4.6,4.6,65,0.00,CLR,,0.00,0.0,WeatherDisplay:10.37,2013-07-23 06:22:00,
2013-07-23 01:28:00,86.0,72.9,29.97,SW,225,2.3,2.3,65,0.00,CLR,,0.00,0.0,WeatherDisplay:10.37,2013-07-23 06:28:00,
2013-07-23 01:33:00,86.0,72.9,29.97,South,180,4.6,4.6,65,0.00,CLR,,0.00,0.0,WeatherDisplay:10.37,2013-07-23 06:33:00,
2013-07-23 01:38:00,85.8,72.7,29.97,WSW,248,1.2,2.0,65,0.00,CLR,,0.00,0.0,WeatherDisplay:10.37,2013-07-23 06:38:00,
2013-07-23 01:43:00,85.8,72.7,29.97,SW,225,2.3,2.3,65,0.00,CLR,,0.00,0.0,WeatherDisplay:10.37,2013-07-23 06:43:00,
2013-07-23 01:48:00,85.8,72.7,29.97,South,180,1.2,2.0,65,0.00,CLR,,0.00,0.0,WeatherDisplay:10.37,2013-07-23 06:48:00,
2013-07-23 01:53:00,85.6,73.0,29.96,SSW,202,3.5,3.5,66,0.00,CLR,,0.00,0.0,WeatherDisplay:10.37,2013-07-23 06:53:00,
2013-07-23 01:58:00,85.5,72.8,29.96,SW,225,4.6,4.6,66,0.00,CLR,,0.00,0.0,WeatherDisplay:10.37,2013-07-23 06:58:00,
2013-07-23 02:04:00,85.3,72.6,29.96,East,90,4.6,4.6,66,0.00,CLR,,0.00,0.0,WeatherDisplay:10.37,2013-07-23 07:04:00,
2013-07-23 02:09:00,85.3,72.6,29.96,WNW,292,3.5,3.5,66,0.00,CLR,,0.00,0.0,WeatherDisplay:10.37,2013-07-23 07:09:00,
2013-07-23 02:14:00,85.1,72.5,29.96,SW,225,2.3,2.6,66,0.00,CLR,,0.00,0.0,WeatherDisplay:10.37,2013-07-23 07:14:00,
2013-07-23 02:19:00,85.1,72.5,29.96,ESE,112,6.9,6.9,66,0.00,CLR,,0.00,0.0,WeatherDisplay:10.37,2013-07-23 07:19:00,
2013-07-23 02:24:00,85.1,72.5,29.96,West,270,1.2,2.2,66,0.00,CLR,,0.00,0.0,WeatherDisplay:10.37,2013-07-23 07:24:00,
2013-07-23 02:30:00,84.9,72.7,29.96,SE,135,4.6,4.6,67,0.00,CLR,,0.00,0.0,WeatherDisplay:10.37,2013-07-23 07:30:00,
2013-07-23 02:35:00,84.6,72.4,29.96,SE,135,4.6,4.6,67,0.00,CLR,,0.00,0.0,WeatherDisplay:10.37,2013-07-23 07:35:00,
2013-07-23 02:40:00,84.6,72.4,29.96,South,180,4.6,4.6,67,0.00,CLR,,0.00,0.0,WeatherDisplay:10.37,2013-07-23 07:40:00,
2013-07-23 02:45:00,84.6,72.4,29.96,South,180,2.3,2.3,67,0.00,CLR,,0.00,0.0,WeatherDisplay:10.37,2013-07-23 07:45:00,
2013-07-23 02:50:00,84.4,72.2,29.97,SSE,158,3.5,3.5,67,0.00,CLR,,0.00,0.0,WeatherDisplay:10.37,2013-07-23 07:50:00,
2013-07-23 02:55:00,84.2,72.0,29.97,SE,135,3.5,3.5,67,0.00,CLR,,0.00,0.0,WeatherDisplay:10.37,2013-07-23 07:55:00,
2013-07-23 03:01:00,84.2,72.5,29.97,South,180,1.2,1.6,68,0.00,CLR,,0.00,0.0,WeatherDisplay:10.37,2013-07-23 08:01:00,
2013-07-23 03:06:00,84.2,72.5,29.97,South,180,1.5,1.6,68,0.00,CLR,,0.00,0.0,WeatherDisplay:10.37,2013-07-23 08:06:00,
2013-07-23 03:11:00,84.2,72.5,29.96,South,180,1.2,1.6,68,0.00,CLR,,0.00,0.0,WeatherDisplay:10.37,2013-07-23 08:11:00,
2013-07-23 03:16:00,84.0,72.8,29.96,WSW,248,1.2,2.0,69,0.00,CLR,,0.00,0.0,WeatherDisplay:10.37,2013-07-23 08:16:00,
2013-07-23 03:21:00,83.8,72.6,29.96,SE,135,2.3,2.3,69,0.00,CLR,,0.00,0.0,WeatherDisplay:10.37,2013-07-23 08:21:00,
2013-07-23 03:27:00,83.7,72.4,29.96,SSE,158,5.8,5.8,69,0.00,CLR,,0.00,0.0,WeatherDisplay:10.37,2013-07-23 08:27:00,
2013-07-23 03:32:00,83.5,72.7,29.97,NNW,338,0.0,2.2,70,0.00,CLR,,0.00,0.0,WeatherDisplay:10.37,2013-07-23 08:32:00,
2013-07-23 03:37:00,83.5,72.7,29.97,SSW,202,4.6,4.6,70,0.00,CLR,,0.00,0.0,WeatherDisplay:10.37,2013-07-23 08:37:00,
2013-07-23 03:42:00,83.3,72.5,29.97,SSE,158,4.6,4.6,70,0.00,CLR,,0.00,0.0,WeatherDisplay:10.37,2013-07-23 08:42:00,
2013-07-23 03:47:00,83.3,72.9,29.97,SSE,158,4.6,4.6,71,0.00,CLR,,0.00,0.0,WeatherDisplay:10.37,2013-07-23 08:47:00,
2013-07-23 03:53:00,83.3,72.9,29.96,SSE,158,3.8,3.8,71,0.00,CLR,,0.00,0.0,WeatherDisplay:10.37,2013-07-23 08:53:00,
2013-07-23 03:58:00,83.1,72.7,29.96,SE,135,4.6,4.6,71,0.00,CLR,,0.00,0.0,WeatherDisplay:10.37,2013-07-23 08:58:00,
2013-07-23 04:03:00,82.9,73.0,29.96,South,180,1.2,1.6,72,0.00,CLR,,0.00,0.0,WeatherDisplay:10.37,2013-07-23 09:03:00,
2013-07-23 04:08:00,82.9,73.0,29.96,WSW,248,1.2,1.3,72,0.00,CLR,,0.00,0.0,WeatherDisplay:10.37,2013-07-23 09:08:00,
2013-07-23 04:13:00,82.8,72.8,29.97,SSE,158,4.6,4.6,72,0.00,CLR,,0.00,0.0,WeatherDisplay:10.37,2013-07-23 09:13:00,
2013-07-23 04:18:00,82.6,73.0,29.97,South,180,2.3,2.3,73,0.00,CLR,,0.00,0.0,WeatherDisplay:10.37,2013-07-23 09:18:00,
2013-07-23 04:23:00,82.6,73.0,29.97,SW,225,2.6,2.6,73,0.00,CLR,,0.00,0.0,WeatherDisplay:10.37,2013-07-23 09:23:00,
2013-07-23 04:29:00,82.6,73.4,29.97,SE,135,5.9,5.9,74,0.00,CLR,,0.00,0.0,WeatherDisplay:10.37,2013-07-23 09:29:00,
2013-07-23 04:34:00,82.2,73.1,29.97,West,270,2.3,2.3,74,0.00,CLR,,0.00,0.0,WeatherDisplay:10.37,2013-07-23 09:34:00,
2013-07-23 04:39:00,82.2,73.1,29.97,South,180,5.8,5.8,74,0.00,CLR,,0.00,0.0,WeatherDisplay:10.37,2013-07-23 09:39:00,
2013-07-23 04:44:00,82.0,73.3,29.97,WNW,292,3.5,3.5,75,0.00,CLR,,0.00,0.0,WeatherDisplay:10.37,2013-07-23 09:44:00,
2013-07-23 04:50:00,82.2,73.5,29.97,SSE,158,3.5,3.5,75,0.00,CLR,,0.00,0.0,WeatherDisplay:10.37,2013-07-23 09:50:00,
2013-07-23 04:55:00,81.9,73.2,29.97,South,180,4.6,4.6,75,0.00,CLR,,0.00,0.0,WeatherDisplay:10.37,2013-07-23 09:55:00,
2013-07-23 05:00:00,81.9,73.2,29.97,SW,225,2.3,2.3,75,0.00,CLR,,0.00,0.0,WeatherDisplay:10.37,2013-07-23 10:00:00,
2013-07-23 05:05:00,81.7,73.0,29.97,ESE,112,3.5,3.5,75,0.00,CLR,,0.00,0.0,WeatherDisplay:10.37,2013-07-23 10:05:00,
2013-07-23 05:11:00,81.7,73.4,29.96,South,180,3.5,3.5,76,0.00,CLR,,0.00,0.0,WeatherDisplay:10.37,2013-07-23 10:11:00,
2013-07-23 05:16:00,81.5,73.2,29.96,SSE,158,5.8,5.8,76,0.00,CLR,,0.00,0.0,WeatherDisplay:10.37,2013-07-23 10:16:00,
2013-07-23 05:21:00,81.5,73.6,29.96,SSE,158,4.6,4.6,77,0.00,CLR,,0.00,0.0,WeatherDisplay:10.37,2013-07-23 10:21:00,
2013-07-23 05:26:00,81.3,73.4,29.96,SW,225,4.6,4.6,77,0.00,CLR,,0.00,0.0,WeatherDisplay:10.37,2013-07-23 10:26:00,
2013-07-23 05:32:00,81.3,73.4,29.97,SSE,158,6.9,6.9,77,0.00,CLR,,0.00,0.0,WeatherDisplay:10.37,2013-07-23 10:32:00,
2013-07-23 05:37:00,81.1,73.6,29.97,South,180,3.5,3.5,78,0.00,CLR,,0.00,0.0,WeatherDisplay:10.37,2013-07-23 10:37:00,
2013-07-23 05:42:00,81.1,73.6,29.97,SSE,158,2.3,2.3,78,0.00,CLR,,0.00,0.0,WeatherDisplay:10.37,2013-07-23 10:42:00,
2013-07-23 05:47:00,81.0,73.5,29.97,SSE,158,6.9,6.9,78,0.00,CLR,,0.00,0.0,WeatherDisplay:10.37,2013-07-23 10:47:00,
2013-07-23 05:52:00,81.1,73.6,29.97,South,180,3.5,3.5,78,0.00,CLR,,0.00,0.0,WeatherDisplay:10.37,2013-07-23 10:52:00,
2013-07-23 05:58:00,81.0,73.8,29.97,SE,135,0.0,1.8,79,0.00,CLR,,0.00,0.0,WeatherDisplay:10.37,2013-07-23 10:58:00,
2013-07-23 06:03:00,80.8,73.7,29.97,SE,135,2.3,2.3,79,0.00,CLR,,0.00,0.0,WeatherDisplay:10.37,2013-07-23 11:03:00,
2013-07-23 06:08:00,80.8,73.7,29.97,SE,135,2.3,2.3,79,0.00,OVC,,0.00,0.0,WeatherDisplay:10.37,2013-07-23 11:08:00,
2013-07-23 06:13:00,80.6,73.9,29.99,SSE,158,2.3,2.3,80,0.00,OVC,,0.00,0.0,WeatherDisplay:10.37,2013-07-23 11:13:00,
2013-07-23 06:18:00,80.8,74.0,29.99,SE,135,1.2,1.3,80,0.00,OVC,,0.00,0.0,WeatherDisplay:10.37,2013-07-23 11:18:00,
2013-07-23 06:23:00,80.8,74.0,29.99,South,180,2.3,2.3,80,0.00,OVC,,0.00,0.0,WeatherDisplay:10.37,2013-07-23 11:23:00,
2013-07-23 06:29:00,80.8,74.0,29.98,South,180,4.6,4.6,80,0.00,OVC,,0.00,0.0,WeatherDisplay:10.37,2013-07-23 11:29:00,
2013-07-23 06:34:00,80.4,73.7,29.98,SE,135,1.2,1.3,80,0.00,OVC,,0.00,0.0,WeatherDisplay:10.37,2013-07-23 11:34:00,
2013-07-23 06:39:00,80.4,73.7,29.98,South,180,2.6,2.6,80,0.00,OVC,,0.00,0.0,WeatherDisplay:10.37,2013-07-23 11:39:00,
2013-07-23 06:44:00,80.8,74.0,29.98,SW,225,1.2,1.2,80,0.00,OVC,,0.00,0.0,WeatherDisplay:10.37,2013-07-23 11:44:00,
2013-07-23 06:49:00,80.4,73.7,29.98,SSE,158,0.0,0.9,80,0.00,OVC,,0.00,0.0,WeatherDisplay:10.37,2013-07-23 11:49:00,
2013-07-23 06:54:00,80.4,73.7,29.98,SW,225,2.6,2.6,80,0.00,OVC,,0.00,0.0,WeatherDisplay:10.37,2013-07-23 11:54:00,
2013-07-23 06:59:00,80.4,73.7,29.98,SSE,158,4.6,4.6,80,0.00,OVC,,0.00,0.0,WeatherDisplay:10.37,2013-07-23 11:59:00,
2013-07-23 07:05:00,80.2,73.5,29.98,SE,135,2.3,2.3,80,0.00,OVC,,0.00,0.0,WeatherDisplay:10.37,2013-07-23 12:05:00,
2013-07-23 07:10:00,80.2,73.9,29.99,South,180,2.3,2.3,81,0.00,OVC,,0.00,0.0,WeatherDisplay:10.37,2013-07-23 12:10:00,
2013-07-23 07:15:00,80.2,73.9,29.99,SSE,158,1.2,1.6,81,0.00,OVC,,0.00,0.0,WeatherDisplay:10.37,2013-07-23 12:15:00,
2013-07-23 07:20:00,80.1,73.7,29.99,South,180,2.3,2.3,81,0.00,OVC,,0.00,0.0,WeatherDisplay:10.37,2013-07-23 12:20:00,
2013-07-23 07:26:00,80.2,73.9,29.99,South,180,2.3,2.3,81,0.00,OVC,,0.00,0.0,WeatherDisplay:10.37,2013-07-23 12:26:00,
2013-07-23 07:31:00,80.1,73.7,29.99,SE,135,2.3,2.3,81,0.00,OVC,,0.00,0.0,WeatherDisplay:10.37,2013-07-23 12:31:00,
2013-07-23 07:36:00,80.2,74.2,29.99,SSE,158,4.6,4.6,82,0.00,OVC,,0.00,0.0,WeatherDisplay:10.37,2013-07-23 12:36:00,
2013-07-23 07:41:00,80.2,74.2,29.99,South,180,1.2,1.2,82,0.00,OVC,,0.00,0.0,WeatherDisplay:10.37,2013-07-23 12:41:00,
2013-07-23 07:46:00,80.2,74.2,29.99,South,180,3.5,3.5,82,0.00,OVC,,0.00,0.0,WeatherDisplay:10.37,2013-07-23 12:46:00,
2013-07-23 07:51:00,80.2,74.2,29.99,SSE,158,3.9,3.9,82,0.00,OVC,,0.00,0.0,WeatherDisplay:10.37,2013-07-23 12:51:00,
2013-07-23 07:56:00,80.4,74.4,29.99,SE,135,4.6,4.6,82,0.00,OVC,,0.00,0.0,WeatherDisplay:10.37,2013-07-23 12:56:00,
2013-07-23 08:01:00,80.4,74.4,29.99,South,180,2.3,2.3,82,0.00,OVC,,0.00,0.0,WeatherDisplay:10.37,2013-07-23 13:01:00,
2013-07-23 08:07:00,80.8,74.8,29.99,SE,135,4.6,4.6,82,0.00,OVC,,0.00,0.0,WeatherDisplay:10.37,2013-07-23 13:07:00,
2013-07-23 08:12:00,80.6,74.6,29.99,SW,225,1.2,1.2,82,0.00,OVC,,0.00,10.0,WeatherDisplay:10.37,2013-07-23 13:12:00,
2013-07-23 08:17:00,80.6,74.6,29.99,SW,225,2.3,2.3,82,0.00,OVC,,0.00,10.0,WeatherDisplay:10.37,2013-07-23 13:17:00,
2013-07-23 08:22:00,81.0,74.9,29.99,South,180,0.0,1.0,82,0.00,OVC,,0.00,10.0,WeatherDisplay:10.37,2013-07-23 13:22:00,
2013-07-23 08:27:00,81.0,74.9,29.99,SSE,158,1.2,1.3,82,0.00,OVC,,0.00,10.0,WeatherDisplay:10.37,2013-07-23 13:27:00,
2013-07-23 08:32:00,81.1,74.8,30.00,SSE,158,4.5,4.5,81,0.00,OVC,,0.00,20.0,WeatherDisplay:10.37,2013-07-23 13:32:00,
2013-07-23 08:37:00,81.5,75.1,30.00,South,180,2.3,2.3,81,0.00,OVC,,0.00,20.0,WeatherDisplay:10.37,2013-07-23 13:37:00,
2013-07-23 08:43:00,81.5,75.1,30.00,WSW,248,5.8,5.8,81,0.00,OVC,,0.00,20.0,WeatherDisplay:10.37,2013-07-23 13:43:00,
2013-07-23 08:48:00,81.7,75.3,30.00,SSW,202,2.3,2.3,81,0.00,OVC,,0.00,20.0,WeatherDisplay:10.37,2013-07-23 13:48:00,
2013-07-23 08:53:00,81.9,75.1,30.01,NNW,338,2.3,2.3,80,0.00,OVC,,0.00,20.0,WeatherDisplay:10.37,2013-07-23 13:53:00,
2013-07-23 08:58:00,82.2,75.1,30.01,South,180,2.3,2.3,79,0.00,OVC,,0.00,20.0,WeatherDisplay:10.37,2013-07-23 13:58:00,
2013-07-23 09:03:00,82.2,75.1,30.01,NNE,22,4.6,4.6,79,0.00,OVC,,0.00,20.0,WeatherDisplay:10.37,2013-07-23 14:03:00,
2013-07-23 09:08:00,82.4,75.2,30.01,SSW,202,0.0,1.5,79,0.00,OVC,,0.00,30.0,WeatherDisplay:10.37,2013-07-23 14:08:00,
2013-07-23 09:14:00,82.6,75.4,30.01,NW,315,2.3,2.3,79,0.00,OVC,,0.00,30.0,WeatherDisplay:10.37,2013-07-23 14:14:00,
2013-07-23 09:19:00,82.9,75.4,30.01,NE,45,8.1,8.1,78,0.00,OVC,,0.00,30.0,WeatherDisplay:10.37,2013-07-23 14:19:00,
2013-07-23 09:24:00,82.9,75.4,30.01,SW,225,1.2,1.5,78,0.00,OVC,,0.00,40.0,WeatherDisplay:10.37,2013-07-23 14:24:00,
2013-07-23 09:29:00,83.1,75.5,30.00,South,180,6.9,6.9,78,0.00,OVC,,0.00,40.0,WeatherDisplay:10.37,2013-07-23 14:29:00,
2013-07-23 09:34:00,83.1,75.2,30.00,NNW,338,1.2,1.2,77,0.00,OVC,,0.00,40.0,WeatherDisplay:10.37,2013-07-23 14:34:00,
2013-07-23 09:39:00,83.3,75.3,30.00,ESE,112,2.3,2.3,77,0.00,OVC,,0.00,40.0,WeatherDisplay:10.37,2013-07-23 14:39:00,
2013-07-23 09:45:00,83.5,75.1,30.00,SW,225,3.5,3.5,76,0.00,OVC,,0.00,40.0,WeatherDisplay:10.37,2013-07-23 14:45:00,
2013-07-23 09:50:00,83.7,75.3,30.01,SSE,158,1.2,1.3,76,0.00,OVC,,0.00,40.0,WeatherDisplay:10.37,2013-07-23 14:50:00,
2013-07-23 09:55:00,83.8,75.9,30.01,ESE,112,3.5,3.5,77,0.00,OVC,,0.00,50.0,WeatherDisplay:10.37,2013-07-23 14:55:00,
2013-07-23 10:00:00,84.2,75.8,30.01,South,180,3.5,3.5,76,0.00,OVC,,0.00,50.0,WeatherDisplay:10.37,2013-07-23 15:00:00,
2013-07-23 10:05:00,84.4,76.0,30.01,West,270,2.3,2.3,76,0.00,OVC,,0.00,40.0,WeatherDisplay:10.37,2013-07-23 15:05:00,
2013-07-23 10:10:00,84.7,76.3,30.02,NW,315,1.2,1.7,76,0.00,OVC,,0.00,50.0,WeatherDisplay:10.37,2013-07-23 15:10:00,
2013-07-23 10:16:00,84.7,75.5,30.02,SSW,202,1.2,1.3,74,0.00,OVC,,0.00,50.0,WeatherDisplay:10.37,2013-07-23 15:16:00,
2013-07-23 10:21:00,84.9,75.7,30.02,South,180,3.5,3.5,74,0.00,OVC,,0.00,50.0,WeatherDisplay:10.37,2013-07-23 15:21:00,
2013-07-23 10:26:00,85.3,76.0,30.02,SSE,158,1.2,1.2,74,0.00,OVC,,0.00,60.0,WeatherDisplay:10.37,2013-07-23 15:26:00,
2013-07-23 10:31:00,85.3,76.0,30.02,SSW,202,1.2,1.2,74,0.00,OVC,,0.00,50.0,WeatherDisplay:10.37,2013-07-23 15:31:00,
2013-07-23 10:37:00,85.8,76.6,30.02,ESE,112,2.4,2.4,74,0.00,OVC,,0.00,60.0,WeatherDisplay:10.37,2013-07-23 15:37:00,
2013-07-23 10:42:00,85.8,76.2,30.02,West,270,2.3,2.3,73,0.00,OVC,,0.00,60.0,WeatherDisplay:10.37,2013-07-23 15:42:00,
2013-07-23 10:47:00,86.0,76.3,30.02,SE,135,1.2,1.2,73,0.00,OVC,,0.00,50.0,WeatherDisplay:10.37,2013-07-23 15:47:00,
2013-07-23 10:52:00,86.2,76.1,30.01,South,180,2.3,2.3,72,0.00,OVC,,0.00,50.0,WeatherDisplay:10.37,2013-07-23 15:52:00,
2013-07-23 10:57:00,86.2,76.1,30.01,SSW,202,1.2,1.2,72,0.00,OVC,,0.00,50.0,WeatherDisplay:10.37,2013-07-23 15:57:00,
2013-07-23 11:02:00,86.5,76.4,30.01,ESE,112,0.0,1.0,72,0.00,OVC,,0.00,50.0,WeatherDisplay:10.37,2013-07-23 16:02:00,
2013-07-23 11:07:00,86.4,76.3,30.01,SSW,202,2.3,2.3,72,0.00,OVC,,0.00,50.0,WeatherDisplay:10.37,2013-07-23 16:07:00,
2013-07-23 11:12:00,86.7,76.2,30.02,NW,315,1.2,1.2,71,0.00,OVC,,0.00,60.0,WeatherDisplay:10.37,2013-07-23 16:12:00,
2013-07-23 11:18:00,86.9,76.4,30.02,WSW,248,3.5,3.5,71,0.00,OVC,,0.00,50.0,WeatherDisplay:10.37,2013-07-23 16:18:00,
2013-07-23 11:23:00,87.1,76.5,30.02,South,180,2.3,2.3,71,0.00,OVC,,0.00,60.0,WeatherDisplay:10.37,2013-07-23 16:23:00,
2013-07-23 11:28:00,87.3,76.3,30.02,West,270,0.0,0.8,70,0.00,OVC,,0.00,60.0,WeatherDisplay:10.37,2013-07-23 16:28:00,
2013-07-23 11:33:00,87.6,77.0,30.01,SE,135,6.9,6.9,71,0.00,OVC,,0.00,50.0,WeatherDisplay:10.37,2013-07-23 16:33:00,
2013-07-23 11:38:00,87.6,77.0,30.01,WSW,248,2.3,2.3,71,0.00,CLR,,0.00,50.0,WeatherDisplay:10.37,2013-07-23 16:38:00,
2013-07-23 11:44:00,87.8,76.8,30.01,WSW,248,1.2,1.4,70,0.00,CLR,,0.00,50.0,WeatherDisplay:10.37,2013-07-23 16:44:00,
2013-07-23 11:49:00,88.2,76.7,30.02,South,180,2.3,2.3,69,0.00,CLR,,0.00,50.0,WeatherDisplay:10.37,2013-07-23 16:49:00,
2013-07-23 11:54:00,88.3,76.9,30.02,SSE,158,4.6,4.6,69,0.00,CLR,,0.00,50.0,WeatherDisplay:10.37,2013-07-23 16:54:00,
2013-07-23 11:59:00,88.3,76.9,30.02,SSE,158,1.2,1.2,69,0.00,FEW,,0.00,50.0,WeatherDisplay:10.37,2013-07-23 16:59:00,
2013-07-23 12:04:00,88.7,77.2,30.02,West,270,0.0,1.2,69,0.00,SCT,,0.00,50.0,WeatherDisplay:10.37,2013-07-23 17:04:00,
2013-07-23 12:10:00,88.7,77.2,30.01,West,270,0.0,1.2,69,0.00,SCT,,0.00,50.0,WeatherDisplay:10.37,2013-07-23 17:10:00,
2013-07-23 12:15:00,89.2,77.3,30.01,South,180,3.5,3.5,68,0.00,BKN,,0.00,50.0,WeatherDisplay:10.37,2013-07-23 17:15:00,
2013-07-23 12:20:00,89.4,77.5,30.01,SSE,158,3.5,3.5,68,0.00,BKN,,0.00,50.0,WeatherDisplay:10.37,2013-07-23 17:20:00,
2013-07-23 12:25:00,89.6,77.2,30.01,South,180,2.9,2.9,67,0.00,BKN,,0.00,50.0,WeatherDisplay:10.37,2013-07-23 17:25:00,
2013-07-23 12:30:00,89.8,77.4,30.00,SE,135,0.0,2.4,67,0.00,OVC,,0.00,50.0,WeatherDisplay:10.37,2013-07-23 17:30:00,
2013-07-23 12:36:00,90.0,77.5,30.00,SW,225,1.2,2.3,67,0.00,OVC,,0.00,40.0,WeatherDisplay:10.37,2013-07-23 17:36:00,
2013-07-23 12:41:00,90.1,77.2,30.00,SSW,202,4.6,4.6,66,0.00,OVC,,0.00,40.0,WeatherDisplay:10.37,2013-07-23 17:41:00,
2013-07-23 12:46:00,90.3,77.4,30.00,South,180,2.3,2.3,66,0.00,OVC,,0.00,50.0,WeatherDisplay:10.37,2013-07-23 17:46:00,
2013-07-23 12:51:00,90.5,77.6,29.99,SW,225,1.6,2.1,66,0.00,OVC,,0.00,40.0,WeatherDisplay:10.37,2013-07-23 17:51:00,
2013-07-23 12:56:00,90.9,77.5,29.99,SE,135,3.5,3.5,65,0.00,OVC,,0.00,40.0,WeatherDisplay:10.37,2013-07-23 17:56:00,
2013-07-23 13:01:00,90.9,77.9,29.99,SSW,202,5.8,5.8,66,0.00,OVC,,0.00,40.0,WeatherDisplay:10.37,2013-07-23 18:01:00,
2013-07-23 13:06:00,91.2,78.3,29.99,SSE,158,6.9,6.9,66,0.00,OVC,,0.00,40.0,WeatherDisplay:10.37,2013-07-23 18:06:00,
2013-07-23 13:12:00,91.6,77.7,29.99,South,180,1.2,2.4,64,0.00,OVC,,0.00,50.0,WeatherDisplay:10.37,2013-07-23 18:12:00,
2013-07-23 13:17:00,91.6,78.1,29.99,SSE,158,8.1,8.1,65,0.00,OVC,,0.00,40.0,WeatherDisplay:10.37,2013-07-23 18:17:00,
2013-07-23 13:22:00,91.8,78.3,29.99,South,180,2.6,2.6,65,0.00,OVC,,0.00,40.0,WeatherDisplay:10.37,2013-07-23 18:22:00,
2013-07-23 13:27:00,92.3,77.9,29.99,WSW,248,5.8,5.8,63,0.00,OVC,,0.00,40.0,WeatherDisplay:10.37,2013-07-23 18:27:00,
2013-07-23 13:33:00,92.3,77.9,29.99,South,180,2.3,2.3,63,0.00,OVC,,0.00,40.0,WeatherDisplay:10.37,2013-07-23 18:33:00,
2013-07-23 13:38:00,92.3,77.9,29.99,West,270,2.3,2.3,63,0.00,OVC,,0.00,40.0,WeatherDisplay:10.37,2013-07-23 18:38:00,
2013-07-23 13:43:00,92.5,77.1,29.99,SE,135,1.4,1.4,61,0.00,OVC,,0.00,40.0,WeatherDisplay:10.37,2013-07-23 18:43:00,
2013-07-23 13:49:00,92.7,77.2,29.99,SSE,158,1.2,1.2,61,0.00,OVC,,0.00,40.0,WeatherDisplay:10.37,2013-07-23 18:49:00,
2013-07-23 13:54:00,93.0,77.1,29.99,SSE,158,0.0,0.9,60,0.00,OVC,,0.00,50.0,WeatherDisplay:10.37,2013-07-23 18:54:00,
2013-07-23 13:59:00,93.4,77.9,29.99,SE,135,3.5,3.5,61,0.00,OVC,,0.00,50.0,WeatherDisplay:10.37,2013-07-23 18:59:00,
2013-07-23 14:05:00,93.4,77.4,29.99,South,180,4.6,4.6,60,0.00,OVC,,0.00,50.0,WeatherDisplay:10.37,2013-07-23 19:05:00,
2013-07-23 14:10:00,93.6,78.1,29.98,ESE,112,2.3,2.5,61,0.00,OVC,,0.00,50.0,WeatherDisplay:10.37,2013-07-23 19:10:00,
2013-07-23 14:15:00,93.9,77.9,29.98,South,180,3.5,3.5,60,0.00,OVC,,0.00,50.0,WeatherDisplay:10.37,2013-07-23 19:15:00,
2013-07-23 14:20:00,93.9,77.4,29.98,South,180,2.3,2.3,59,0.00,OVC,,0.00,50.0,WeatherDisplay:10.37,2013-07-23 19:20:00,
2013-07-23 14:26:00,94.1,78.1,29.98,SSE,158,2.3,2.3,60,0.00,OVC,,0.00,50.0,WeatherDisplay:10.37,2013-07-23 19:26:00,
2013-07-23 14:31:00,94.5,77.4,29.97,NW,315,1.2,1.3,58,0.00,OVC,,0.00,50.0,WeatherDisplay:10.37,2013-07-23 19:31:00,
2013-07-23 14:36:00,94.5,77.4,29.97,South,180,4.0,4.0,58,0.00,OVC,,0.00,40.0,WeatherDisplay:10.37,2013-07-23 19:36:00,
2013-07-23 14:42:00,94.6,77.0,29.97,SSE,158,2.3,2.3,57,0.00,OVC,,0.00,40.0,WeatherDisplay:10.37,2013-07-23 19:42:00,
2013-07-23 14:49:00,94.8,76.7,29.97,South,180,2.5,2.5,56,0.00,OVC,,0.00,40.0,WeatherDisplay:10.37,2013-07-23 19:49:00,
2013-07-23 14:54:00,94.6,77.6,29.97,South,180,8.1,8.1,58,0.00,OVC,,0.00,40.0,WeatherDisplay:10.37,2013-07-23 19:54:00,
2013-07-23 14:59:00,95.0,77.4,29.97,South,180,4.6,4.6,57,0.00,OVC,,0.00,40.0,WeatherDisplay:10.37,2013-07-23 19:59:00,
2013-07-23 15:04:00,95.0,77.4,29.97,WSW,248,1.2,2.3,57,0.00,OVC,,0.00,40.0,WeatherDisplay:10.37,2013-07-23 20:04:00,
2013-07-23 15:10:00,95.2,76.5,29.95,SW,225,3.5,3.5,55,0.00,OVC,,0.00,40.0,WeatherDisplay:10.37,2013-07-23 20:10:00,
2013-07-23 15:16:00,95.2,75.9,29.95,West,270,2.3,2.3,54,0.00,OVC,,0.00,40.0,WeatherDisplay:10.37,2013-07-23 20:16:00,
2013-07-23 15:22:00,95.2,77.0,29.95,South,180,3.5,3.5,56,0.00,OVC,,0.00,40.0,WeatherDisplay:10.37,2013-07-23 20:22:00,
2013-07-23 15:27:00,95.0,76.8,29.95,WSW,248,2.3,2.3,56,0.00,OVC,,0.00,40.0,WeatherDisplay:10.37,2013-07-23 20:27:00,
2013-07-23 15:33:00,95.2,77.5,29.94,SSE,158,5.8,5.8,57,0.00,OVC,,0.00,40.0,WeatherDisplay:10.37,2013-07-23 20:33:00,
2013-07-23 15:38:00,95.2,77.0,29.94,SE,135,1.2,2.6,56,0.00,OVC,,0.00,40.0,WeatherDisplay:10.37,2013-07-23 20:38:00,
2013-07-23 15:44:00,95.5,76.8,29.94,SE,135,1.4,2.1,55,0.00,OVC,,0.00,40.0,WeatherDisplay:10.37,2013-07-23 20:44:00,
2013-07-23 15:49:00,96.1,77.3,29.93,SE,135,4.6,4.6,55,0.00,OVC,,0.00,40.0,WeatherDisplay:10.37,2013-07-23 20:49:00,
2013-07-23 15:54:00,96.1,77.3,29.93,South,180,8.1,8.1,55,0.00,OVC,,0.00,40.0,WeatherDisplay:10.37,2013-07-23 20:54:00,
2013-07-23 15:59:00,96.1,76.7,29.93,SSW,202,3.5,3.5,54,0.00,OVC,,0.00,30.0,WeatherDisplay:10.37,2013-07-23 20:59:00,
2013-07-23 16:04:00,96.3,76.9,29.93,SSE,158,4.6,4.6,54,0.00,OVC,,0.00,30.0,WeatherDisplay:10.37,2013-07-23 21:04:00,
2013-07-23 16:09:00,96.3,76.3,29.92,WNW,292,2.3,2.3,53,0.00,OVC,,0.00,30.0,WeatherDisplay:10.37,2013-07-23 21:09:00,
2013-07-23 16:15:00,96.1,76.2,29.92,South,180,5.8,5.8,53,0.00,OVC,,0.00,30.0,WeatherDisplay:10.37,2013-07-23 21:15:00,
2013-07-23 16:20:00,96.1,75.6,29.92,WSW,248,3.5,3.5,52,0.00,OVC,,0.00,30.0,WeatherDisplay:10.37,2013-07-23 21:20:00,
2013-07-23 16:25:00,96.3,76.9,29.92,SE,135,6.9,6.9,54,0.00,OVC,,0.00,30.0,WeatherDisplay:10.37,2013-07-23 21:25:00,
2013-07-23 16:31:00,96.4,77.1,29.91,SE,135,4.9,4.9,54,0.00,OVC,,0.00,30.0,WeatherDisplay:10.37,2013-07-23 21:31:00,
2013-07-23 16:37:00,96.3,75.8,29.91,SSW,202,4.6,4.6,52,0.00,OVC,,0.00,30.0,WeatherDisplay:10.37,2013-07-23 21:37:00,
2013-07-23 16:43:00,96.4,76.5,29.91,South,180,6.9,6.9,53,0.00,OVC,,0.00,40.0,WeatherDisplay:10.37,2013-07-23 21:43:00,
2013-07-23 16:48:00,96.6,76.1,29.91,South,180,2.6,2.6,52,0.00,OVC,,0.00,40.0,WeatherDisplay:10.37,2013-07-23 21:48:00,
2013-07-23 16:53:00,96.8,76.3,29.91,South,180,9.2,9.2,52,0.00,OVC,,0.00,40.0,WeatherDisplay:10.37,2013-07-23 21:53:00,
2013-07-23 16:59:00,97.0,75.3,29.91,West,270,1.6,2.6,50,0.00,OVC,,0.00,40.0,WeatherDisplay:10.37,2013-07-23 21:59:00,
2013-07-23 17:04:00,96.8,75.7,29.91,South,180,2.3,2.3,51,0.00,OVC,,0.00,40.0,WeatherDisplay:10.37,2013-07-23 22:04:00,
2013-07-23 17:09:00,96.8,75.1,29.91,SSE,158,6.9,6.9,50,0.00,OVC,,0.00,40.0,WeatherDisplay:10.37,2013-07-23 22:09:00,
2013-07-23 17:14:00,97.0,76.4,29.91,South,180,2.3,2.3,52,0.00,OVC,,0.00,40.0,WeatherDisplay:10.37,2013-07-23 22:14:00,
2013-07-23 17:20:00,97.2,76.0,29.91,WNW,292,2.3,2.3,51,0.00,OVC,,0.00,40.0,WeatherDisplay:10.37,2013-07-23 22:20:00,
2013-07-23 17:25:00,97.3,75.6,29.91,SE,135,8.1,8.1,50,0.00,OVC,,0.00,40.0,WeatherDisplay:10.37,2013-07-23 22:25:00,
2013-07-23 17:30:00,97.2,74.8,29.92,West,270,2.3,3.0,49,0.00,OVC,,0.00,40.0,WeatherDisplay:10.37,2013-07-23 22:30:00,
2013-07-23 17:37:00,97.3,75.0,29.92,WSW,248,1.2,1.7,49,0.00,OVC,,0.00,40.0,WeatherDisplay:10.37,2013-07-23 22:37:00,
2013-07-23 17:43:00,97.3,74.4,29.92,South,180,5.8,5.8,48,0.00,OVC,,0.00,40.0,WeatherDisplay:10.37,2013-07-23 22:43:00,
2013-07-23 17:49:00,97.0,73.4,29.90,SW,225,2.3,2.3,47,0.00,OVC,,0.00,40.0,WeatherDisplay:10.37,2013-07-23 22:49:00,
2013-07-23 17:54:00,97.0,74.0,29.90,ESE,112,6.9,6.9,48,0.00,OVC,,0.00,40.0,WeatherDisplay:10.37,2013-07-23 22:54:00,
2013-07-23 17:59:00,96.8,73.9,29.90,WSW,248,6.9,6.9,48,0.00,OVC,,0.00,40.0,WeatherDisplay:10.37,2013-07-23 22:59:00,
2013-07-23 18:04:00,97.0,73.4,29.90,SE,135,5.8,5.8,47,0.00,OVC,,0.00,40.0,WeatherDisplay:10.37,2013-07-23 23:04:00,
2013-07-23 18:09:00,97.0,72.8,29.90,SW,225,1.2,2.1,46,0.00,OVC,,0.00,40.0,WeatherDisplay:10.37,2013-07-23 23:09:00,
2013-07-23 18:15:00,96.6,72.4,29.90,South,180,3.5,3.5,46,0.00,OVC,,0.00,40.0,WeatherDisplay:10.37,2013-07-23 23:15:00,
2013-07-23 18:20:00,97.0,72.8,29.90,South,180,3.5,3.5,46,0.00,OVC,,0.00,30.0,WeatherDisplay:10.37,2013-07-23 23:20:00,
2013-07-23 18:26:00,96.8,72.6,29.90,NNW,338,2.3,2.4,46,0.00,OVC,,0.00,30.0,WeatherDisplay:10.37,2013-07-23 23:26:00,
2013-07-23 18:31:00,96.4,71.0,29.89,SE,135,3.5,3.5,44,0.00,OVC,,0.00,20.0,WeatherDisplay:10.37,2013-07-23 23:31:00,
2013-07-23 18:36:00,96.6,71.1,29.89,NNE,22,2.3,2.3,44,0.00,OVC,,0.00,20.0,WeatherDisplay:10.37,2013-07-23 23:36:00,
2013-07-23 18:41:00,96.4,71.0,29.89,SE,135,3.5,3.5,44,0.00,OVC,,0.00,20.0,WeatherDisplay:10.37,2013-07-23 23:41:00,
2013-07-23 18:46:00,96.6,72.4,29.89,South,180,5.8,5.8,46,0.00,OVC,,0.00,20.0,WeatherDisplay:10.37,2013-07-23 23:46:00,
2013-07-23 18:52:00,96.4,72.3,29.87,SSW,202,0.0,1.0,46,0.00,OVC,,0.00,20.0,WeatherDisplay:10.37,2013-07-23 23:52:00,
2013-07-23 18:57:00,96.4,72.3,29.87,ENE,68,4.6,4.6,46,0.00,OVC,,0.00,10.0,WeatherDisplay:10.37,2013-07-23 23:57:00,
2013-07-23 19:02:00,96.3,72.1,29.87,SSE,158,3.8,3.8,46,0.00,OVC,,0.00,10.0,WeatherDisplay:10.37,2013-07-24 00:02:00,
2013-07-23 19:08:00,96.3,72.1,29.87,SW,225,0.0,1.5,46,0.00,OVC,,0.00,10.0,WeatherDisplay:10.37,2013-07-24 00:08:00,
2013-07-23 19:13:00,96.1,71.3,29.87,South,180,2.3,2.3,45,0.00,OVC,,0.00,10.0,WeatherDisplay:10.37,2013-07-24 00:13:00,
2013-07-23 19:18:00,95.9,69.8,29.87,SSE,158,3.6,3.6,43,0.00,OVC,,0.00,10.0,WeatherDisplay:10.37,2013-07-24 00:18:00,
2013-07-23 19:24:00,96.3,70.8,29.87,West,270,1.5,1.6,44,0.00,OVC,,0.00,10.0,WeatherDisplay:10.37,2013-07-24 00:24:00,
2013-07-23 19:29:00,96.1,70.0,29.88,SE,135,3.5,3.5,43,0.00,OVC,,0.00,10.0,WeatherDisplay:10.37,2013-07-24 00:29:00,
2013-07-23 19:34:00,96.1,70.0,29.88,SW,225,4.6,4.6,43,0.00,OVC,,0.00,10.0,WeatherDisplay:10.37,2013-07-24 00:34:00,
2013-07-23 19:39:00,96.3,70.8,29.88,East,90,1.2,1.4,44,0.00,OVC,,0.00,10.0,WeatherDisplay:10.37,2013-07-24 00:39:00,
2013-07-23 19:44:00,96.1,70.0,29.88,South,180,1.2,1.6,43,0.00,OVC,,0.00,10.0,WeatherDisplay:10.37,2013-07-24 00:44:00,
2013-07-23 19:49:00,95.7,69.6,29.88,SSW,202,2.3,2.3,43,0.00,OVC,,0.00,10.0,WeatherDisplay:10.37,2013-07-24 00:49:00,
2013-07-23 19:55:00,95.4,69.3,29.88,South,180,1.2,1.2,43,0.00,OVC,,0.00,10.0,WeatherDisplay:10.37,2013-07-24 00:55:00,
2013-07-23 20:00:00,95.2,69.2,29.88,SE,135,2.3,2.3,43,0.00,OVC,,0.00,10.0,WeatherDisplay:10.37,2013-07-24 01:00:00,
2013-07-23 20:06:00,94.8,68.8,29.88,West,270,1.2,1.2,43,0.00,OVC,,0.00,10.0,WeatherDisplay:10.37,2013-07-24 01:06:00,
2013-07-23 20:11:00,94.5,69.2,29.88,SE,135,4.6,4.6,44,0.00,OVC,,0.00,10.0,WeatherDisplay:10.37,2013-07-24 01:11:00,
2013-07-23 20:16:00,94.1,68.9,29.88,SSW,202,0.0,1.0,44,0.00,OVC,,0.00,10.0,WeatherDisplay:10.37,2013-07-24 01:16:00,
2013-07-23 20:21:00,93.9,68.7,29.88,ESE,112,3.5,3.5,44,0.00,OVC,,0.00,10.0,WeatherDisplay:10.37,2013-07-24 01:21:00,
2013-07-23 20:26:00,93.6,69.0,29.88,South,180,3.5,3.5,45,0.00,OVC,,0.00,10.0,WeatherDisplay:10.37,2013-07-24 01:26:00,
2013-07-23 20:32:00,93.4,68.9,29.88,SSE,158,2.3,2.3,45,0.00,OVC,,0.00,10.0,WeatherDisplay:10.37,2013-07-24 01:32:00,
2013-07-23 20:37:00,93.2,69.3,29.88,SSE,158,3.5,3.5,46,0.00,OVC,,0.00,10.0,WeatherDisplay:10.37,2013-07-24 01:37:00,
2013-07-23 20:42:00,93.0,69.2,29.88,South,180,4.6,4.6,46,0.00,OVC,,0.00,10.0,WeatherDisplay:10.37,2013-07-24 01:42:00,
2013-07-23 20:47:00,93.0,69.8,29.88,SSE,158,2.3,2.4,47,0.00,OVC,,0.00,10.0,WeatherDisplay:10.37,2013-07-24 01:47:00,
2013-07-23 20:52:00,92.7,69.5,29.88,SSE,158,4.6,4.6,47,0.00,OVC,,0.00,10.0,WeatherDisplay:10.37,2013-07-24 01:52:00,
2013-07-23 20:58:00,92.5,69.9,29.88,ESE,112,3.5,3.5,48,0.00,OVC,,0.00,10.0,WeatherDisplay:10.37,2013-07-24 01:58:00,
2013-07-23 21:03:00,92.3,69.2,29.88,SSE,158,3.2,3.2,47,0.00,CLR,,0.00,10.0,WeatherDisplay:10.37,2013-07-24 02:03:00,
2013-07-23 21:09:00,92.1,69.6,29.88,South,180,2.3,2.3,48,0.00,CLR,,0.00,10.0,WeatherDisplay:10.37,2013-07-24 02:09:00,
2013-07-23 21:14:00,91.9,69.4,29.88,NE,45,2.3,2.3,48,0.00,CLR,,0.00,10.0,WeatherDisplay:10.37,2013-07-24 02:14:00,
2013-07-23 21:20:00,91.6,69.1,29.88,East,90,2.3,2.3,48,0.00,CLR,,0.00,10.0,WeatherDisplay:10.37,2013-07-24 02:20:00,
2013-07-23 21:26:00,91.6,69.1,29.88,South,180,4.6,4.6,48,0.00,CLR,,0.00,0.0,WeatherDisplay:10.37,2013-07-24 02:26:00,
2013-07-23 21:31:00,91.2,68.8,29.87,South,180,2.8,2.8,48,0.00,CLR,,0.00,10.0,WeatherDisplay:10.37,2013-07-24 02:31:00,
2013-07-23 21:36:00,91.2,68.8,29.87,ESE,112,2.9,2.9,48,0.00,CLR,,0.00,10.0,WeatherDisplay:10.37,2013-07-24 02:36:00,
2013-07-23 21:42:00,90.9,68.5,29.87,SSW,202,2.4,2.4,48,0.00,CLR,,0.00,10.0,WeatherDisplay:10.37,2013-07-24 02:42:00,
2013-07-23 21:47:00,90.7,68.3,29.87,ESE,112,3.5,3.5,48,0.00,CLR,,0.00,10.0,WeatherDisplay:10.37,2013-07-24 02:47:00,
2013-07-23 21:52:00,90.3,68.6,29.88,South,180,3.5,3.5,49,0.00,CLR,,0.00,10.0,WeatherDisplay:10.37,2013-07-24 02:52:00,
2013-07-23 21:58:00,90.5,68.7,29.88,SSE,158,2.3,2.3,49,0.00,CLR,,0.00,10.0,WeatherDisplay:10.37,2013-07-24 02:58:00,
2013-07-23 22:03:00,90.1,68.4,29.88,South,180,4.0,4.0,49,0.00,CLR,,0.00,10.0,WeatherDisplay:10.37,2013-07-24 03:03:00,
2013-07-23 22:09:00,90.1,68.4,29.88,SSE,158,2.3,2.3,49,0.00,CLR,,0.00,0.0,WeatherDisplay:10.37,2013-07-24 03:09:00,
2013-07-23 22:14:00,89.8,68.7,29.88,ESE,112,4.6,4.6,50,0.00,CLR,,0.00,0.0,WeatherDisplay:10.37,2013-07-24 03:14:00,
2013-07-23 22:20:00,89.6,68.5,29.88,SE,135,3.5,3.5,50,0.00,CLR,,0.00,0.0,WeatherDisplay:10.37,2013-07-24 03:20:00,
2013-07-23 22:25:00,89.6,68.5,29.88,SW,225,3.5,3.5,50,0.00,CLR,,0.00,0.0,WeatherDisplay:10.37,2013-07-24 03:25:00,
2013-07-23 22:30:00,89.4,68.9,29.90,SSE,158,3.5,3.5,51,0.00,CLR,,0.00,0.0,WeatherDisplay:10.37,2013-07-24 03:30:00,
2013-07-23 22:36:00,89.2,68.7,29.90,South,180,2.6,2.6,51,0.00,CLR,,0.00,0.0,WeatherDisplay:10.37,2013-07-24 03:36:00,
2013-07-23 22:41:00,89.1,68.6,29.90,SSE,158,2.3,2.3,51,0.00,CLR,,0.00,0.0,WeatherDisplay:10.37,2013-07-24 03:41:00,
2013-07-23 22:46:00,88.9,68.4,29.90,SSE,158,3.5,3.5,51,0.00,CLR,,0.00,0.0,WeatherDisplay:10.37,2013-07-24 03:46:00,
2013-07-23 22:51:00,88.9,68.4,29.91,ESE,112,3.5,3.5,51,0.00,CLR,,0.00,0.0,WeatherDisplay:10.37,2013-07-24 03:51:00,
2013-07-23 22:57:00,88.7,68.8,29.91,ENE,68,2.3,2.4,52,0.00,CLR,,0.00,0.0,WeatherDisplay:10.37,2013-07-24 03:57:00,
2013-07-23 23:01:00,88.7,68.8,29.91,SSE,158,2.3,2.5,52,0.00,CLR,,0.00,0.0,WeatherDisplay:10.37,2013-07-24 04:01:00,
2013-07-23 23:02:00,88.7,68.8,29.91,SSE,158,2.3,2.5,52,0.00,CLR,,0.00,0.0,WeatherDisplay:10.37,2013-07-24 04:02:00,
2013-07-23 23:05:00,88.5,68.6,29.91,West,270,3.5,3.5,52,0.00,CLR,,0.00,0.0,WeatherDisplay:10.37,2013-07-24 04:05:00,
2013-07-23 23:07:00,88.3,68.5,29.91,SSE,158,5.8,5.8,52,0.00,CLR,,0.00,0.0,WeatherDisplay:10.37,2013-07-24 04:07:00,
2013-07-23 23:12:00,88.2,68.3,29.91,SSE,158,2.3,2.3,52,0.00,CLR,,0.00,0.0,WeatherDisplay:10.37,2013-07-24 04:12:00,
2013-07-23 23:17:00,88.0,68.1,29.91,South,180,4.9,4.9,52,0.00,CLR,,0.00,0.0,WeatherDisplay:10.37,2013-07-24 04:17:00,
2013-07-23 23:22:00,88.0,68.7,29.91,East,90,3.6,3.6,53,0.00,CLR,,0.00,0.0,WeatherDisplay:10.37,2013-07-24 04:22:00,
2013-07-23 23:28:00,87.8,68.5,29.91,South,180,1.2,1.3,53,0.00,CLR,,0.00,0.0,WeatherDisplay:10.37,2013-07-24 04:28:00,
2013-07-23 23:33:00,87.6,68.4,29.91,SW,225,2.3,2.3,53,0.00,CLR,,0.00,0.0,WeatherDisplay:10.37,2013-07-24 04:33:00,
2013-07-23 23:38:00,87.4,68.2,29.91,South,180,3.5,3.5,53,0.00,CLR,,0.00,0.0,WeatherDisplay:10.37,2013-07-24 04:38:00,
2013-07-23 23:43:00,87.3,68.6,29.91,South,180,3.5,3.5,54,0.00,CLR,,0.00,0.0,WeatherDisplay:10.37,2013-07-24 04:43:00,
2013-07-23 23:48:00,87.3,68.6,29.89,SSE,158,2.3,2.3,54,0.00,CLR,,0.00,0.0,WeatherDisplay:10.37,2013-07-24 04:48:00,
2013-07-23 23:53:00,87.3,68.6,29.89,South,180,2.9,2.9,54,0.00,CLR,,0.00,0.0,WeatherDisplay:10.37,2013-07-24 04:53:00,
2013-07-23 23:59:00,86.9,68.3,29.89,SE,135,3.5,3.5,54,0.00,CLR,,0.00,0.0,WeatherDisplay:10.37,2013-07-24 04:59:00,